Time;durP1;ratioP1;P1;durP2;ratioP2;P2;SDS_P1;SDS_P2;PMS_P1;PMS_P2;Temp;Humidity;BMP_temperature;BMP_pressure;BME280_temperature;BME280_humidity;BME280_pressure;Samples;Min_cycle;Max_cycle;Signal;HPM_P1;HPM_P2
2024/02/16 00:01:52;;;;;;;;;;;;;;;;;;4992334;28;19921;-71
2024/02/16 00:04:17;;;;;;;;;;;;;;;;;;4992827;28;19917;-72
2024/02/16 00:06:45;;;;;;;;;;;;;;;;;;5008852;28;21859;-72
2024/02/16 00:09:10;;;;;;;;;;;;;;;;;;4994395;28;20375;-72
2024/02/16 00:11:38;;;;;;;;;;;;;;;;;;4986083;28;19921;-72
2024/02/16 00:14:03;;;;;;;;;;;;;;;;;;4989129;28;19928;-73
2024/02/16 00:16:34;;;;;;;;;;;;;;;;;;4990496;28;19917;-71
2024/02/16 00:19:02;;;;;;;;;;;;;;;;;;4976264;28;19940;-71
2024/02/16 00:21:30;;;;;;;;;;;;;;;;;;4975641;28;20311;-70
2024/02/16 00:23:55;;;;;;;;;;;;;;;;;;4993679;28;19972;-71
2024/02/16 00:26:21;;;;;;;;;;;;;;;;;;5000645;28;19929;-70
2024/02/16 00:28:46;;;;;;;;;;;;;;;;;;4994122;28;19934;-71
2024/02/16 00:31:11;;;;;;;;;;;;;;;;;;4990600;28;20360;-70
2024/02/16 00:33:39;;;;;;;;;;;;;;;;;;5008690;28;19929;-71
2024/02/16 00:36:05;;;;;;;;;;;;;;;;;;4994195;28;20254;-71
2024/02/16 00:38:32;;;;;;;;;;;;;;;;;;4992731;28;19918;-71
2024/02/16 00:41:00;;;;;;;;;;;;;;;;;;4992852;28;19918;-71
2024/02/16 00:43:25;;;;;;;;;;;;;;;;;;4992468;28;19939;-70
2024/02/16 00:45:50;;;;;;;;;;;;;;;;;;4993617;28;19917;-71
2024/02/16 00:48:16;;;;;;;;;;;;;;;;;;4974935;28;19991;-70
2024/02/16 00:50:42;;;;;;;;;;;;;;;;;;4992296;28;20000;-71
2024/02/16 00:53:10;;;;;;;;;;;;;;;;;;4976092;28;19921;-71
2024/02/16 00:55:38;;;;;;;;;;;;;;;;;;4988252;28;19979;-72
2024/02/16 00:58:03;;;;;;;;;;;;;;;;;;4991454;28;19921;-72
2024/02/16 01:00:31;;;;;;;;;;;;;;;;;;4975757;28;20381;-71
2024/02/16 01:02:57;;;;;;;;;;;;;;;;;;4991339;28;20008;-71
2024/02/16 01:05:23;;;;;;;;;;;;;;;;;;4976665;28;19914;-71
2024/02/16 01:07:51;;;;;;;;;;;;;;;;;;4992671;28;20143;-73
2024/02/16 01:10:16;;;;;;;;;;;;;;;;;;4992695;28;20393;-71
2024/02/16 01:12:41;;;;;;;;;;;;;;;;;;4992554;28;20347;-73
2024/02/16 01:15:06;;;;;;;;;;;;;;;;;;4989048;28;20007;-72
2024/02/16 01:17:35;;;;;;;;;;;;;;;;;;4990454;28;19953;-71
2024/02/16 01:20:00;;;;;;;;;;;;;;;;;;4992021;28;20008;-71
2024/02/16 01:22:31;;;;;;;;;;;;;;;;;;4974931;28;19921;-72
2024/02/16 01:24:57;;;;;;;;;;;;;;;;;;4990793;28;19922;-71
2024/02/16 01:27:24;;;;;;;;;;;;;;;;;;4993042;28;19975;-71
2024/02/16 01:29:49;;;;;;;;;;;;;;;;;;4988328;28;19928;-71
2024/02/16 01:32:14;;;;;;;;;;;;;;;;;;4991523;28;19971;-71
2024/02/16 01:34:40;;;;;;;;;;;;;;;;;;4991477;28;20426;-71
2024/02/16 01:37:07;;;;;;;;;;;;;;;;;;4992261;28;19988;-71
2024/02/16 01:39:32;;;;;;;;;;;;;;;;;;4988412;28;19917;-71
2024/02/16 01:41:58;;;;;;;;;;;;;;;;;;4992960;28;20077;-70
2024/02/16 01:44:23;;;;;;;;;;;;;;;;;;4990306;28;19918;-71
2024/02/16 01:46:48;;;;;;;;;;;;;;;;;;4996205;28;19936;-72
2024/02/16 01:49:14;;;;;;;;;;;;;;;;;;4992051;28;20016;-71
2024/02/16 01:51:40;;;;;;;;;;;;;;;;;;4994048;28;19918;-71
2024/02/16 01:54:05;;;;;;;;;;;;;;;;;;4992161;28;19921;-72
2024/02/16 01:56:33;;;;;;;;;;;;;;;;;;4967995;28;20896;-71
2024/02/16 01:58:58;;;;;;;;;;;;;;;;;;4992088;28;20028;-71
2024/02/16 02:01:25;;;;;;;;;;;;;;;;;;4989091;28;20759;-71
2024/02/16 02:03:51;;;;;;;;;;;;;;;;;;4992468;28;20017;-72
2024/02/16 02:06:16;;;;;;;;;;;;;;;;;;4975020;28;20385;-72
2024/02/16 02:08:41;;;;;;;;;;;;;;;;;;4988674;28;19917;-71
2024/02/16 02:11:07;;;;;;;;;;;;;;;;;;4989088;28;19918;-71
2024/02/16 02:13:32;;;;;;;;;;;;;;;;;;4992638;28;19921;-70
2024/02/16 02:16:00;;;;;;;;;;;;;;;;;;4996019;28;19918;-71
2024/02/16 02:18:25;;;;;;;;;;;;;;;;;;4991714;28;20628;-70
2024/02/16 02:20:50;;;;;;;;;;;;;;;;;;4991646;28;19917;-71
2024/02/16 02:23:15;;;;;;;;;;;;;;;;;;4991596;28;19922;-70
2024/02/16 02:25:43;;;;;;;;;;;;;;;;;;4989941;28;19963;-70
2024/02/16 02:28:10;;;;;;;;;;;;;;;;;;4992307;28;20028;-71
2024/02/16 02:30:37;;;;;;;;;;;;;;;;;;4991753;28;19967;-70
2024/02/16 02:33:03;;;;;;;;;;;;;;;;;;4991000;28;19971;-71
2024/02/16 02:35:30;;;;;;;;;;;;;;;;;;4988898;28;20379;-70
2024/02/16 02:37:55;;;;;;;;;;;;;;;;;;4989726;28;19927;-71
2024/02/16 02:40:21;;;;;;;;;;;;;;;;;;4995867;28;20456;-71
2024/02/16 02:42:46;;;;;;;;;;;;;;;;;;4994510;28;19928;-71
2024/02/16 02:45:11;;;;;;;;;;;;;;;;;;4994085;28;20046;-71
2024/02/16 02:47:36;;;;;;;;;;;;;;;;;;4995624;28;19980;-70
2024/02/16 02:50:02;;;;;;;;;;;;;;;;;;4994741;28;20805;-71
2024/02/16 02:52:30;;;;;;;;;;;;;;;;;;4998153;28;19925;-70
2024/02/16 02:54:56;;;;;;;;;;;;;;;;;;4989457;28;19936;-70
2024/02/16 02:57:21;;;;;;;;;;;;;;;;;;4995605;28;20423;-71
2024/02/16 02:59:52;;;;;;;;;;;;;;;;;;4991610;28;19921;-71
2024/02/16 03:02:20;;;;;;;;;;;;;;;;;;4992732;28;19917;-71
2024/02/16 03:04:48;;;;;;;;;;;;;;;;;;4994744;28;19921;-70
2024/02/16 03:07:16;;;;;;;;;;;;;;;;;;4992477;28;19987;-70
2024/02/16 03:09:44;;;;;;;;;;;;;;;;;;4991362;28;20821;-70
2024/02/16 03:12:15;;;;;;;;;;;;;;;;;;4992874;28;19918;-70
2024/02/16 03:14:40;;;;;;;;;;;;;;;;;;4995726;28;19992;-71
2024/02/16 03:17:05;;;;;;;;;;;;;;;;;;4993488;28;19924;-70
2024/02/16 03:19:30;;;;;;;;;;;;;;;;;;4991247;28;19922;-70
2024/02/16 03:21:56;;;;;;;;;;;;;;;;;;4995857;28;19928;-72
2024/02/16 03:24:21;;;;;;;;;;;;;;;;;;4992129;28;20048;-70
2024/02/16 03:26:47;;;;;;;;;;;;;;;;;;4973993;28;20117;-70
2024/02/16 03:29:17;;;;;;;;;;;;;;;;;;4990750;28;20349;-70
2024/02/16 03:31:43;;;;;;;;;;;;;;;;;;4993577;28;20067;-70
2024/02/16 03:34:08;;;;;;;;;;;;;;;;;;4993336;28;19917;-71
2024/02/16 03:36:36;;;;;;;;;;;;;;;;;;4986759;28;19922;-70
2024/02/16 03:39:04;;;;;;;;;;;;;;;;;;4994383;28;20382;-71
2024/02/16 03:41:34;;;;;;;;;;;;;;;;;;4994307;28;19921;-70
2024/02/16 03:44:01;;;;;;;;;;;;;;;;;;4992732;28;20472;-70
2024/02/16 03:46:26;;;;;;;;;;;;;;;;;;4993528;28;20017;-71
2024/02/16 03:48:52;;;;;;;;;;;;;;;;;;4994886;28;20300;-70
2024/02/16 03:51:20;;;;;;;;;;;;;;;;;;4990395;28;20401;-70
2024/02/16 03:53:48;;;;;;;;;;;;;;;;;;4993685;28;19922;-71
2024/02/16 03:56:16;;;;;;;;;;;;;;;;;;4968214;28;20353;-70
2024/02/16 03:58:44;;;;;;;;;;;;;;;;;;4989904;28;19963;-70
2024/02/16 04:01:18;;;;;;;;;;;;;;;;;;4995746;28;19913;-70
2024/02/16 04:03:43;;;;;;;;;;;;;;;;;;5010290;28;20414;-71
2024/02/16 04:06:11;;;;;;;;;;;;;;;;;;4994392;28;19921;-71
2024/02/16 04:08:36;;;;;;;;;;;;;;;;;;4997014;28;19918;-70
2024/02/16 04:11:02;;;;;;;;;;;;;;;;;;4989668;28;19956;-69
2024/02/16 04:13:27;;;;;;;;;;;;;;;;;;4992866;28;20019;-71
2024/02/16 04:15:53;;;;;;;;;;;;;;;;;;4989082;28;20329;-70
2024/02/16 04:18:18;;;;;;;;;;;;;;;;;;4993040;28;20645;-69
2024/02/16 04:20:44;;;;;;;;;;;;;;;;;;4993135;28;20389;-70
2024/02/16 04:23:09;;;;;;;;;;;;;;;;;;4993347;28;20432;-69
2024/02/16 04:25:39;;;;;;;;;;;;;;;;;;4984527;28;20179;-70
2024/02/16 04:28:07;;;;;;;;;;;;;;;;;;4986752;28;19932;-70
2024/02/16 04:30:33;;;;;;;;;;;;;;;;;;4986985;28;20367;-70
2024/02/16 04:32:58;;;;;;;;;;;;;;;;;;4993244;28;19932;-70
2024/02/16 04:35:23;;;;;;;;;;;;;;;;;;4988882;28;19924;-70
2024/02/16 04:37:49;;;;;;;;;;;;;;;;;;4993154;28;20313;-70
2024/02/16 04:40:17;;;;;;;;;;;;;;;;;;4994536;28;19960;-70
2024/02/16 04:42:45;;;;;;;;;;;;;;;;;;4988580;28;20052;-71
2024/02/16 04:45:10;;;;;;;;;;;;;;;;;;4990654;28;20079;-70
2024/02/16 04:47:38;;;;;;;;;;;;;;;;;;4989439;28;19928;-69
2024/02/16 04:50:03;;;;;;;;;;;;;;;;;;4993104;28;19921;-71
2024/02/16 04:52:31;;;;;;;;;;;;;;;;;;4989549;28;19933;-71
2024/02/16 04:54:56;;;;;;;;;;;;;;;;;;4986104;28;20871;-71
2024/02/16 04:57:24;;;;;;;;;;;;;;;;;;4990699;28;19957;-71
2024/02/16 04:59:49;;;;;;;;;;;;;;;;;;4991885;28;20571;-71
2024/02/16 05:02:17;;;;;;;;;;;;;;;;;;4994191;28;19917;-71
2024/02/16 05:04:45;;;;;;;;;;;;;;;;;;4990234;28;19921;-71
2024/02/16 05:07:11;;;;;;;;;;;;;;;;;;4994365;28;19936;-71
2024/02/16 05:09:36;;;;;;;;;;;;;;;;;;4989572;28;19924;-71
2024/02/16 05:12:02;;;;;;;;;;;;;;;;;;4990796;28;20944;-71
2024/02/16 05:14:27;;;;;;;;;;;;;;;;;;4988880;28;19921;-70
2024/02/16 05:16:55;;;;;;;;;;;;;;;;;;4992502;28;20924;-70
2024/02/16 05:19:20;;;;;;;;;;;;;;;;;;4992914;28;19960;-70
2024/02/16 05:21:46;;;;;;;;;;;;;;;;;;4992899;28;20000;-71
2024/02/16 05:24:14;;;;;;;;;;;;;;;;;;4986690;28;19924;-70
2024/02/16 05:26:39;;;;;;;;;;;;;;;;;;4984460;28;19925;-70
2024/02/16 05:29:07;;;;;;;;;;;;;;;;;;4993180;28;19944;-70
2024/02/16 05:31:37;;;;;;;;;;;;;;;;;;4993271;28;19932;-71
2024/02/16 05:34:05;;;;;;;;;;;;;;;;;;4989759;28;20254;-70
2024/02/16 05:36:35;;;;;;;;;;;;;;;;;;4989118;28;19918;-70
2024/02/16 05:39:19;;;;;;;;;;;;;;;;;;4988829;28;20316;-70
2024/02/16 05:41:45;;;;;;;;;;;;;;;;;;4991750;28;19921;-70
2024/02/16 05:44:10;;;;;;;;;;;;;;;;;;4986821;28;20365;-70
2024/02/16 05:46:38;;;;;;;;;;;;;;;;;;4997778;28;19921;-71
2024/02/16 05:49:04;;;;;;;;;;;;;;;;;;4992151;28;19991;-69
2024/02/16 05:51:32;;;;;;;;;;;;;;;;;;4991992;28;19921;-70
2024/02/16 05:54:00;;;;;;;;;;;;;;;;;;4992936;28;20506;-69
2024/02/16 05:56:27;;;;;;;;;;;;;;;;;;4992599;28;19979;-70
2024/02/16 05:58:53;;;;;;;;;;;;;;;;;;4993987;28;20075;-70
2024/02/16 06:01:18;;;;;;;;;;;;;;;;;;4995718;28;20372;-69
2024/02/16 06:03:46;;;;;;;;;;;;;;;;;;4993398;28;19918;-71
2024/02/16 06:06:11;;;;;;;;;;;;;;;;;;4994217;28;19988;-69
2024/02/16 06:08:39;;;;;;;;;;;;;;;;;;4992899;28;19923;-69
2024/02/16 06:11:07;;;;;;;;;;;;;;;;;;4991539;28;19921;-70
2024/02/16 06:13:35;;;;;;;;;;;;;;;;;;4996447;28;19921;-71
2024/02/16 06:16:03;;;;;;;;;;;;;;;;;;4982175;28;19983;-70
2024/02/16 06:18:29;;;;;;;;;;;;;;;;;;4996445;28;19921;-69
2024/02/16 06:20:54;;;;;;;;;;;;;;;;;;4993913;28;20036;-70
2024/02/16 06:23:23;;;;;;;;;;;;;;;;;;4992795;28;20329;-70
2024/02/16 06:25:51;;;;;;;;;;;;;;;;;;5010645;28;19924;-70
2024/02/16 06:28:19;;;;;;;;;;;;;;;;;;4995868;28;20019;-72
2024/02/16 06:30:44;;;;;;;;;;;;;;;;;;4976520;28;19925;-69
2024/02/16 06:33:10;;;;;;;;;;;;;;;;;;4996624;28;19925;-70
2024/02/16 06:35:38;;;;;;;;;;;;;;;;;;4999209;28;19921;-70
2024/02/16 06:38:03;;;;;;;;;;;;;;;;;;4998625;28;19990;-70
2024/02/16 06:40:29;;;;;;;;;;;;;;;;;;4976993;28;19917;-69
2024/02/16 06:42:54;;;;;;;;;;;;;;;;;;4992469;28;20339;-69
2024/02/16 06:45:20;;;;;;;;;;;;;;;;;;4994380;28;20289;-69
2024/02/16 06:47:47;;;;;;;;;;;;;;;;;;4992524;28;20217;-70
2024/02/16 06:50:12;;;;;;;;;;;;;;;;;;4993211;28;19921;-71
2024/02/16 06:52:38;;;;;;;;;;;;;;;;;;4976093;28;19918;-68
2024/02/16 06:55:05;;;;;;;;;;;;;;;;;;4992683;28;19917;-69
2024/02/16 06:57:31;;;;;;;;;;;;;;;;;;4991822;28;20305;-69
2024/02/16 06:59:59;;;;;;;;;;;;;;;;;;4975586;28;19925;-69
2024/02/16 07:02:25;;;;;;;;;;;;;;;;;;4997772;28;19922;-69
2024/02/16 07:04:50;;;;;;;;;;;;;;;;;;4990777;28;19933;-69
2024/02/16 07:07:21;;;;;;;;;;;;;;;;;;4992430;28;19925;-69
2024/02/16 07:09:49;;;;;;;;;;;;;;;;;;4996701;28;19917;-69
2024/02/16 07:12:14;;;;;;;;;;;;;;;;;;4990508;28;19929;-69
2024/02/16 07:14:43;;;;;;;;;;;;;;;;;;4995635;28;19921;-69
2024/02/16 07:17:11;;;;;;;;;;;;;;;;;;4993377;28;19936;-69
2024/02/16 07:19:37;;;;;;;;;;;;;;;;;;4993075;28;19985;-69
2024/02/16 07:22:02;;;;;;;;;;;;;;;;;;4995806;28;19927;-70
2024/02/16 07:24:29;;;;;;;;;;;;;;;;;;4993500;28;19922;-69
2024/02/16 07:27:01;;;;;;;;;;;;;;;;;;4994083;28;20235;-69
2024/02/16 07:29:29;;;;;;;;;;;;;;;;;;4995478;28;19921;-69
2024/02/16 07:31:55;;;;;;;;;;;;;;;;;;4989218;28;19926;-69
2024/02/16 07:34:23;;;;;;;;;;;;;;;;;;4980272;28;19961;-69
2024/02/16 07:36:52;;;;;;;;;;;;;;;;;;4994530;28;19922;-69
2024/02/16 07:39:17;;;;;;;;;;;;;;;;;;4992520;28;19963;-69
2024/02/16 07:41:42;;;;;;;;;;;;;;;;;;4994492;28;19988;-70
2024/02/16 07:44:11;;;;;;;;;;;;;;;;;;4993486;28;19925;-69
2024/02/16 07:46:38;;;;;;;;;;;;;;;;;;4992067;28;19926;-69
2024/02/16 07:49:10;;;;;;;;;;;;;;;;;;4978264;28;20413;-69
2024/02/16 07:51:38;;;;;;;;;;;;;;;;;;4993384;28;19918;-69
2024/02/16 07:54:03;;;;;;;;;;;;;;;;;;4994080;28;20021;-68
2024/02/16 07:56:31;;;;;;;;;;;;;;;;;;4997388;28;19941;-68
2024/02/16 07:58:56;;;;;;;;;;;;;;;;;;4995362;28;19933;-68
2024/02/16 08:01:24;;;;;;;;;;;;;;;;;;4996395;28;19997;-69
2024/02/16 08:03:51;;;;;;;;;;;;;;;;;;4995105;28;20177;-68
2024/02/16 08:06:20;;;;;;;;;;;;;;;;;;5008750;28;20783;-69
2024/02/16 08:08:49;;;;;;;;;;;;;;;;;;4993302;28;20361;-70
2024/02/16 08:11:20;;;;;;;;;;;;;;;;;;4993801;28;19988;-70
2024/02/16 08:13:50;;;;;;;;;;;;;;;;;;4994118;28;19917;-69
2024/02/16 08:16:15;;;;;;;;;;;;;;;;;;4976727;28;19925;-69
2024/02/16 08:18:40;;;;;;;;;;;;;;;;;;4993481;28;19917;-69
2024/02/16 08:21:06;;;;;;;;;;;;;;;;;;4994764;28;20289;-69
2024/02/16 08:23:31;;;;;;;;;;;;;;;;;;4990470;28;19917;-69
2024/02/16 08:25:57;;;;;;;;;;;;;;;;;;4991564;28;19996;-69
2024/02/16 08:28:24;;;;;;;;;;;;;;;;;;4993176;28;19929;-69
2024/02/16 08:30:55;;;;;;;;;;;;;;;;;;4994402;28;19917;-69
2024/02/16 08:33:20;;;;;;;;;;;;;;;;;;4997734;28;20028;-70
2024/02/16 08:35:47;;;;;;;;;;;;;;;;;;4993487;28;19921;-68
2024/02/16 08:38:13;;;;;;;;;;;;;;;;;;4993306;28;19959;-68
2024/02/16 08:40:47;;;;;;;;;;;;;;;;;;4993201;28;19940;-68
2024/02/16 08:43:13;;;;;;;;;;;;;;;;;;4992392;28;19917;-67
2024/02/16 08:45:43;;;;;;;;;;;;;;;;;;4996892;28;20097;-69
2024/02/16 08:48:11;;;;;;;;;;;;;;;;;;4996997;28;20054;-71
2024/02/16 08:50:39;;;;;;;;;;;;;;;;;;5006049;28;19917;-68
2024/02/16 08:53:04;;;;;;;;;;;;;;;;;;4992409;28;19945;-70
2024/02/16 08:55:32;;;;;;;;;;;;;;;;;;4991919;28;21084;-70
2024/02/16 08:57:57;;;;;;;;;;;;;;;;;;4992539;28;19980;-69
2024/02/16 09:00:26;;;;;;;;;;;;;;;;;;4991785;28;19921;-70
2024/02/16 09:02:55;;;;;;;;;;;;;;;;;;4997067;28;20021;-69
2024/02/16 09:05:23;;;;;;;;;;;;;;;;;;4992783;28;19963;-68
2024/02/16 09:07:48;;;;;;;;;;;;;;;;;;4989928;28;19921;-69
2024/02/16 09:10:14;;;;;;;;;;;;;;;;;;4996941;28;20638;-69
2024/02/16 09:12:44;;;;;;;;;;;;;;;;;;4993144;28;19913;-69
2024/02/16 09:15:15;;;;;;;;;;;;;;;;;;4976838;28;20003;-69
2024/02/16 09:17:40;;;;;;;;;;;;;;;;;;4993387;28;19971;-69
2024/02/16 09:20:08;;;;;;;;;;;;;;;;;;4992510;28;20396;-68
2024/02/16 09:22:33;;;;;;;;;;;;;;;;;;4976265;28;20361;-69
2024/02/16 09:24:59;;;;;;;;;;;;;;;;;;4994366;28;19989;-69
2024/02/16 09:27:25;;;;;;;;;;;;;;;;;;4973663;28;19991;-70
2024/02/16 09:29:53;;;;;;;;;;;;;;;;;;4994623;28;20008;-68
2024/02/16 09:32:20;;;;;;;;;;;;;;;;;;4991529;28;20016;-68
2024/02/16 09:34:46;;;;;;;;;;;;;;;;;;4990800;28;20000;-68
2024/02/16 09:37:12;;;;;;;;;;;;;;;;;;4993652;28;20424;-70
2024/02/16 09:39:41;;;;;;;;;;;;;;;;;;4990728;28;19921;-69
2024/02/16 09:42:06;;;;;;;;;;;;;;;;;;4994399;28;19940;-68
2024/02/16 09:44:34;;;;;;;;;;;;;;;;;;4992727;28;19918;-70
2024/02/16 09:47:02;;;;;;;;;;;;;;;;;;4992341;28;19925;-69
2024/02/16 09:49:30;;;;;;;;;;;;;;;;;;4990674;28;19949;-69
2024/02/16 09:51:55;;;;;;;;;;;;;;;;;;5001722;28;20327;-69
2024/02/16 09:54:23;;;;;;;;;;;;;;;;;;5000128;28;20024;-69
2024/02/16 09:56:48;;;;;;;;;;;;;;;;;;4998446;28;19918;-69
2024/02/16 09:59:16;;;;;;;;;;;;;;;;;;5004159;28;20417;-69
2024/02/16 10:01:41;;;;;;;;;;;;;;;;;;4995729;28;20021;-69
2024/02/16 10:04:07;;;;;;;;;;;;;;;;;;4998209;28;20399;-70
2024/02/16 10:06:33;;;;;;;;;;;;;;;;;;5002690;28;20296;-71
2024/02/16 10:08:58;;;;;;;;;;;;;;;;;;4997305;28;19926;-69
2024/02/16 10:11:30;;;;;;;;;;;;;;;;;;4998153;28;19941;-69
2024/02/16 10:13:58;;;;;;;;;;;;;;;;;;4998478;28;19968;-71
2024/02/16 10:16:27;;;;;;;;;;;;;;;;;;5014364;28;19921;-69
2024/02/16 10:18:52;;;;;;;;;;;;;;;;;;4997718;28;19963;-70
2024/02/16 10:21:21;;;;;;;;;;;;;;;;;;4997454;28;19918;-69
2024/02/16 10:23:46;;;;;;;;;;;;;;;;;;4994723;28;20289;-70
2024/02/16 10:26:17;;;;;;;;;;;;;;;;;;4998678;28;19917;-69
2024/02/16 10:28:43;;;;;;;;;;;;;;;;;;4997821;28;19952;-70
2024/02/16 10:31:09;;;;;;;;;;;;;;;;;;4997676;28;19922;-71
2024/02/16 10:33:36;;;;;;;;;;;;;;;;;;4998719;28;20057;-72
2024/02/16 10:36:02;;;;;;;;;;;;;;;;;;4998709;28;20095;-68
2024/02/16 10:38:30;;;;;;;;;;;;;;;;;;4998008;28;19978;-69
2024/02/16 10:40:55;;;;;;;;;;;;;;;;;;4994235;28;19922;-69
2024/02/16 10:43:21;;;;;;;;;;;;;;;;;;4996553;28;20013;-70
2024/02/16 10:45:49;;;;;;;;;;;;;;;;;;4998233;28;19944;-72
2024/02/16 10:48:15;;;;;;;;;;;;;;;;;;5000376;28;19921;-70
2024/02/16 10:50:40;;;;;;;;;;;;;;;;;;4996832;28;19921;-69
2024/02/16 10:53:08;;;;;;;;;;;;;;;;;;4998956;28;19928;-71
2024/02/16 10:55:36;;;;;;;;;;;;;;;;;;4997288;28;19921;-70
2024/02/16 10:58:02;;;;;;;;;;;;;;;;;;4997165;28;19925;-70
2024/02/16 11:00:27;;;;;;;;;;;;;;;;;;4994167;28;19920;-69
2024/02/16 11:02:55;;;;;;;;;;;;;;;;;;4993902;28;19917;-69
2024/02/16 11:05:20;;;;;;;;;;;;;;;;;;4996471;28;19921;-70
2024/02/16 11:07:46;;;;;;;;;;;;;;;;;;4991695;28;20490;-70
2024/02/16 11:10:11;;;;;;;;;;;;;;;;;;4999083;28;19921;-70
2024/02/16 11:12:37;;;;;;;;;;;;;;;;;;4998616;28;19926;-69
2024/02/16 11:15:02;;;;;;;;;;;;;;;;;;4995865;28;19957;-69
2024/02/16 11:17:27;;;;;;;;;;;;;;;;;;4996573;28;20585;-69
2024/02/16 11:19:52;;;;;;;;;;;;;;;;;;4994758;28;20164;-71
2024/02/16 11:22:18;;;;;;;;;;;;;;;;;;4997123;28;19917;-68
2024/02/16 11:24:44;;;;;;;;;;;;;;;;;;4991179;28;20373;-70
2024/02/16 11:27:09;;;;;;;;;;;;;;;;;;4992999;28;20027;-69
2024/02/16 11:29:38;;;;;;;;;;;;;;;;;;4995081;28;20420;-71
2024/02/16 11:32:03;;;;;;;;;;;;;;;;;;4989712;28;19925;-69
2024/02/16 11:34:29;;;;;;;;;;;;;;;;;;4990964;28;19979;-70
2024/02/16 11:36:54;;;;;;;;;;;;;;;;;;4992165;28;19921;-70
2024/02/16 11:39:19;;;;;;;;;;;;;;;;;;4997241;28;19964;-69
2024/02/16 11:41:47;;;;;;;;;;;;;;;;;;5008098;28;19924;-71
2024/02/16 11:44:13;;;;;;;;;;;;;;;;;;4994482;28;19917;-68
2024/02/16 11:46:40;;;;;;;;;;;;;;;;;;4993856;28;19975;-71
2024/02/16 11:49:05;;;;;;;;;;;;;;;;;;4995639;28;20373;-72
2024/02/16 11:51:31;;;;;;;;;;;;;;;;;;4995249;28;20046;-72
2024/02/16 11:53:57;;;;;;;;;;;;;;;;;;4975623;28;20317;-70
2024/02/16 11:56:25;;;;;;;;;;;;;;;;;;4993540;28;20503;-71
2024/02/16 11:58:53;;;;;;;;;;;;;;;;;;4997672;28;20400;-70
2024/02/16 12:01:18;;;;;;;;;;;;;;;;;;4998172;28;19921;-70
2024/02/16 12:03:47;;;;;;;;;;;;;;;;;;4998347;28;19921;-70
2024/02/16 12:06:15;;;;;;;;;;;;;;;;;;4982776;28;19933;-72
2024/02/16 12:08:44;;;;;;;;;;;;;;;;;;4992028;28;19921;-73
2024/02/16 12:11:09;;;;;;;;;;;;;;;;;;4993084;28;20286;-72
2024/02/16 12:13:35;;;;;;;;;;;;;;;;;;4994619;28;19967;-72
2024/02/16 12:16:00;;;;;;;;;;;;;;;;;;4998324;28;20145;-75
2024/02/16 12:18:26;;;;;;;;;;;;;;;;;;4995521;28;19948;-76
2024/02/16 12:20:51;;;;;;;;;;;;;;;;;;4994340;28;20267;-74
2024/02/16 12:23:17;;;;;;;;;;;;;;;;;;4990631;28;19933;-76
2024/02/16 12:25:42;;;;;;;;;;;;;;;;;;4992009;28;19924;-75
2024/02/16 12:28:07;;;;;;;;;;;;;;;;;;4993821;28;19948;-73
2024/02/16 12:30:36;;;;;;;;;;;;;;;;;;4974564;28;20012;-71
2024/02/16 12:33:02;;;;;;;;;;;;;;;;;;4993700;28;20290;-71
2024/02/16 12:35:28;;;;;;;;;;;;;;;;;;4997120;28;20378;-70
2024/02/16 12:37:56;;;;;;;;;;;;;;;;;;4995069;28;19923;-71
2024/02/16 12:40:21;;;;;;;;;;;;;;;;;;4996088;28;20299;-69
2024/02/16 12:42:47;;;;;;;;;;;;;;;;;;4990246;28;19923;-69
2024/02/16 12:45:13;;;;;;;;;;;;;;;;;;4991468;28;20050;-70
2024/02/16 12:47:38;;;;;;;;;;;;;;;;;;4993557;28;21183;-69
2024/02/16 12:50:04;;;;;;;;;;;;;;;;;;4991457;28;20027;-71
2024/02/16 12:52:29;;;;;;;;;;;;;;;;;;4993431;28;20000;-72
2024/02/16 12:54:58;;;;;;;;;;;;;;;;;;4991738;28;20047;-72
2024/02/16 12:57:24;;;;;;;;;;;;;;;;;;4993769;28;19917;-71
2024/02/16 12:59:52;;;;;;;;;;;;;;;;;;4991609;28;19921;-73
2024/02/16 13:02:17;;;;;;;;;;;;;;;;;;4994611;28;19929;-74
2024/02/16 13:04:42;;;;;;;;;;;;;;;;;;4993520;28;20325;-71
2024/02/16 13:07:12;;;;;;;;;;;;;;;;;;4996517;28;19964;-71
2024/02/16 13:09:38;;;;;;;;;;;;;;;;;;4993251;28;19921;-71
2024/02/16 13:12:03;;;;;;;;;;;;;;;;;;4992434;28;19959;-73
2024/02/16 13:14:28;;;;;;;;;;;;;;;;;;4991574;28;19917;-73
2024/02/16 13:16:54;;;;;;;;;;;;;;;;;;4998146;28;19924;-72
2024/02/16 13:19:19;;;;;;;;;;;;;;;;;;4993217;28;19921;-74
2024/02/16 13:21:47;;;;;;;;;;;;;;;;;;4996472;28;19961;-72
2024/02/16 13:24:12;;;;;;;;;;;;;;;;;;4991587;28;19941;-72
2024/02/16 13:26:40;;;;;;;;;;;;;;;;;;4991045;28;20106;-73
2024/02/16 13:29:05;;;;;;;;;;;;;;;;;;4992893;28;20542;-72
2024/02/16 13:31:31;;;;;;;;;;;;;;;;;;4990430;28;20391;-75
2024/02/16 13:33:57;;;;;;;;;;;;;;;;;;4988208;28;19913;-73
2024/02/16 13:36:22;;;;;;;;;;;;;;;;;;4993020;28;19917;-72
2024/02/16 13:38:47;;;;;;;;;;;;;;;;;;4974866;28;19921;-71
2024/02/16 13:41:13;;;;;;;;;;;;;;;;;;4990979;28;19967;-71
2024/02/16 13:43:38;;;;;;;;;;;;;;;;;;4989500;28;19925;-72
2024/02/16 13:46:03;;;;;;;;;;;;;;;;;;4989298;28;20016;-72
2024/02/16 13:48:29;;;;;;;;;;;;;;;;;;4994184;28;19968;-75
2024/02/16 13:50:57;;;;;;;;;;;;;;;;;;4990872;28;19921;-69
2024/02/16 13:53:25;;;;;;;;;;;;;;;;;;4990715;28;19929;-72
2024/02/16 13:55:53;;;;;;;;;;;;;;;;;;4993309;28;19952;-71
2024/02/16 13:58:18;;;;;;;;;;;;;;;;;;4991567;28;19929;-72
2024/02/16 14:00:44;;;;;;;;;;;;;;;;;;4994858;28;20008;-71
2024/02/16 14:03:12;;;;;;;;;;;;;;;;;;5008053;28;19921;-71
2024/02/16 14:05:37;;;;;;;;;;;;;;;;;;4990437;28;19922;-75
2024/02/16 14:08:03;;;;;;;;;;;;;;;;;;4994381;28;19921;-72
2024/02/16 14:10:28;;;;;;;;;;;;;;;;;;4984223;28;20126;-72
2024/02/16 14:12:54;;;;;;;;;;;;;;;;;;4977289;28;19918;-76
2024/02/16 14:15:20;;;;;;;;;;;;;;;;;;5010772;28;20361;-72
2024/02/16 14:17:45;;;;;;;;;;;;;;;;;;4992281;28;19917;-72
2024/02/16 14:20:10;;;;;;;;;;;;;;;;;;4991305;28;19928;-72
2024/02/16 14:22:36;;;;;;;;;;;;;;;;;;4993036;28;20373;-73
2024/02/16 14:25:04;;;;;;;;;;;;;;;;;;4988850;28;19968;-72
2024/02/16 14:27:32;;;;;;;;;;;;;;;;;;4992257;28;20001;-73
2024/02/16 14:29:58;;;;;;;;;;;;;;;;;;5006033;28;20634;-75
2024/02/16 14:32:25;;;;;;;;;;;;;;;;;;4993982;28;19925;-73
2024/02/16 14:34:51;;;;;;;;;;;;;;;;;;4992830;28;20226;-73
2024/02/16 14:37:16;;;;;;;;;;;;;;;;;;4995021;28;19921;-74
2024/02/16 14:39:42;;;;;;;;;;;;;;;;;;4995581;28;20030;-74
2024/02/16 14:42:07;;;;;;;;;;;;;;;;;;4995458;28;20868;-73
2024/02/16 14:44:32;;;;;;;;;;;;;;;;;;4993384;28;19933;-74
2024/02/16 14:46:58;;;;;;;;;;;;;;;;;;4993677;28;19925;-73
2024/02/16 14:49:26;;;;;;;;;;;;;;;;;;4999332;28;20238;-73
2024/02/16 14:51:55;;;;;;;;;;;;;;;;;;4996276;28;19979;-74
2024/02/16 14:54:20;;;;;;;;;;;;;;;;;;4994834;28;19948;-75
2024/02/16 14:56:46;;;;;;;;;;;;;;;;;;4993472;28;20474;-72
2024/02/16 14:59:11;;;;;;;;;;;;;;;;;;4995984;28;19921;-74
2024/02/16 15:01:37;;;;;;;;;;;;;;;;;;4996423;28;19921;-71
2024/02/16 15:04:02;;;;;;;;;;;;;;;;;;4995254;28;19922;-71
2024/02/16 15:06:29;;;;;;;;;;;;;;;;;;4995549;28;20866;-73
2024/02/16 15:08:54;;;;;;;;;;;;;;;;;;4994867;28;19921;-73
2024/02/16 15:11:22;;;;;;;;;;;;;;;;;;4994199;28;19925;-73
2024/02/16 15:13:49;;;;;;;;;;;;;;;;;;4997159;28;19937;-77
2024/02/16 15:16:14;;;;;;;;;;;;;;;;;;4996710;28;19964;-75
2024/02/16 15:18:39;;;;;;;;;;;;;;;;;;4999981;28;20455;-78
2024/02/16 15:21:05;;;;;;;;;;;;;;;;;;4992996;28;20529;-75
2024/02/16 15:23:30;;;;;;;;;;;;;;;;;;4998985;28;19925;-77
2024/02/16 15:25:55;;;;;;;;;;;;;;;;;;4996832;28;19922;-75
2024/02/16 15:28:20;;;;;;;;;;;;;;;;;;4998608;28;19928;-75
2024/02/16 15:30:46;;;;;;;;;;;;;;;;;;4990057;28;19940;-75
2024/02/16 15:33:13;;;;;;;;;;;;;;;;;;4993449;28;20376;-74
2024/02/16 15:35:38;;;;;;;;;;;;;;;;;;4997979;28;19922;-77
2024/02/16 15:38:03;;;;;;;;;;;;;;;;;;4994800;28;20308;-77
2024/02/16 15:40:29;;;;;;;;;;;;;;;;;;4997785;28;19925;-75
2024/02/16 15:42:54;;;;;;;;;;;;;;;;;;4994618;28;20811;-75
2024/02/16 15:45:22;;;;;;;;;;;;;;;;;;4993462;28;19930;-75
2024/02/16 15:47:50;;;;;;;;;;;;;;;;;;4989650;28;19937;-74
2024/02/16 15:50:15;;;;;;;;;;;;;;;;;;4993269;28;19917;-74
2024/02/16 15:52:43;;;;;;;;;;;;;;;;;;4974503;28;19922;-74
2024/02/16 15:55:08;;;;;;;;;;;;;;;;;;4978470;28;19960;-73
2024/02/16 15:57:34;;;;;;;;;;;;;;;;;;4993731;28;20024;-73
2024/02/16 15:59:59;;;;;;;;;;;;;;;;;;4989082;28;20376;-77
2024/02/16 16:02:25;;;;;;;;;;;;;;;;;;4995407;28;19918;-72
2024/02/16 16:04:50;;;;;;;;;;;;;;;;;;4996502;28;20439;-72
2024/02/16 16:07:18;;;;;;;;;;;;;;;;;;4995042;28;20285;-72
2024/02/16 16:09:43;;;;;;;;;;;;;;;;;;4988476;28;19928;-72
2024/02/16 16:12:08;;;;;;;;;;;;;;;;;;4993504;28;19922;-73
2024/02/16 16:14:37;;;;;;;;;;;;;;;;;;4992993;28;20004;-72
2024/02/16 16:17:03;;;;;;;;;;;;;;;;;;4994850;28;19917;-74
2024/02/16 16:19:31;;;;;;;;;;;;;;;;;;4993951;28;20308;-72
2024/02/16 16:22:02;;;;;;;;;;;;;;;;;;4977818;28;20522;-71
2024/02/16 16:24:27;;;;;;;;;;;;;;;;;;4993174;28;19923;-74
2024/02/16 16:26:53;;;;;;;;;;;;;;;;;;4995306;28;20282;-72
2024/02/16 16:29:20;;;;;;;;;;;;;;;;;;4992071;28;19933;-70
2024/02/16 16:31:46;;;;;;;;;;;;;;;;;;4977628;28;19928;-71
2024/02/16 16:34:13;;;;;;;;;;;;;;;;;;4994446;28;19921;-71
2024/02/16 16:36:39;;;;;;;;;;;;;;;;;;4995867;28;19927;-70
2024/02/16 16:39:07;;;;;;;;;;;;;;;;;;4987474;28;20278;-72
2024/02/16 16:41:32;;;;;;;;;;;;;;;;;;4992828;28;19921;-71